sensor_id;sensor_type;location;lat;lon;timestamp;pressure;altitude;pressure_sealevel;temperature;humidity
58967;BME280;44744;51.894;5.080;2022-11-15T00:00:13;100937.33;;;6.71;81.13
58967;BME280;44744;51.894;5.080;2022-11-15T00:01:18;100937.29;;;6.72;81.21
58967;BME280;44744;51.894;5.080;2022-11-15T00:02:18;100933.77;;;6.73;81.28
58967;BME280;44744;51.894;5.080;2022-11-15T00:03:21;100935.16;;;6.73;81.26
58967;BME280;44744;51.894;5.080;2022-11-15T00:04:22;100935.16;;;6.73;81.36
58967;BME280;44744;51.894;5.080;2022-11-15T00:05:22;100938.45;;;6.73;81.46
58967;BME280;44744;51.894;5.080;2022-11-15T00:06:23;100939.66;;;6.75;81.46
58967;BME280;44744;51.894;5.080;2022-11-15T00:07:23;100940.89;;;6.74;81.28
58967;BME280;44744;51.894;5.080;2022-11-15T00:08:23;100940.70;;;6.75;81.26
58967;BME280;44744;51.894;5.080;2022-11-15T00:09:24;100940.16;;;6.75;81.38
58967;BME280;44744;51.894;5.080;2022-11-15T00:10:24;100939.63;;;6.75;81.53
58967;BME280;44744;51.894;5.080;2022-11-15T00:11:25;100943.11;;;6.76;81.45
58967;BME280;44744;51.894;5.080;2022-11-15T00:12:27;100942.23;;;6.76;81.43
58967;BME280;44744;51.894;5.080;2022-11-15T00:13:29;100942.92;;;6.77;81.61
58967;BME280;44744;51.894;5.080;2022-11-15T00:14:29;100945.37;;;6.77;81.68
58967;BME280;44744;51.894;5.080;2022-11-15T00:15:30;100941.13;;;6.78;81.77
58967;BME280;44744;51.894;5.080;2022-11-15T00:16:30;100939.32;;;6.79;81.61
58967;BME280;44744;51.894;5.080;2022-11-15T00:17:30;100938.94;;;6.80;81.68
58967;BME280;44744;51.894;5.080;2022-11-15T00:18:31;100937.52;;;6.80;81.82
58967;BME280;44744;51.894;5.080;2022-11-15T00:19:31;100937.32;;;6.80;81.62
58967;BME280;44744;51.894;5.080;2022-11-15T00:20:33;100934.51;;;6.81;81.72
58967;BME280;44744;51.894;5.080;2022-11-15T00:21:34;100936.43;;;6.81;81.82
58967;BME280;44744;51.894;5.080;2022-11-15T00:22:35;100931.31;;;6.81;81.93
58967;BME280;44744;51.894;5.080;2022-11-15T00:23:35;100929.89;;;6.82;81.86
58967;BME280;44744;51.894;5.080;2022-11-15T00:24:36;100927.22;;;6.83;81.98
58967;BME280;44744;51.894;5.080;2022-11-15T00:25:36;100930.71;;;6.83;82.01
58967;BME280;44744;51.894;5.080;2022-11-15T00:26:36;100930.55;;;6.83;82.15
58967;BME280;44744;51.894;5.080;2022-11-15T00:27:37;100925.96;;;6.84;81.89
58967;BME280;44744;51.894;5.080;2022-11-15T00:28:37;100926.83;;;6.84;81.98
58967;BME280;44744;51.894;5.080;2022-11-15T00:29:37;100926.27;;;6.85;82.09
58967;BME280;44744;51.894;5.080;2022-11-15T00:30:38;100926.95;;;6.85;82.03
58967;BME280;44744;51.894;5.080;2022-11-15T00:31:38;100920.66;;;6.84;82.16
58967;BME280;44744;51.894;5.080;2022-11-15T00:32:41;100918.34;;;6.85;82.26
58967;BME280;44744;51.894;5.080;2022-11-15T00:33:43;100922.52;;;6.86;82.05
58967;BME280;44744;51.894;5.080;2022-11-15T00:34:43;100922.67;;;6.87;82.25
58967;BME280;44744;51.894;5.080;2022-11-15T00:35:44;100918.95;;;6.88;82.19
58967;BME280;44744;51.894;5.080;2022-11-15T00:36:44;100921.04;;;6.88;82.24
58967;BME280;44744;51.894;5.080;2022-11-15T00:37:45;100920.30;;;6.89;82.21
58967;BME280;44744;51.894;5.080;2022-11-15T00:38:45;100920.12;;;6.90;82.34
58967;BME280;44744;51.894;5.080;2022-11-15T00:39:45;100917.82;;;6.90;82.28
58967;BME280;44744;51.894;5.080;2022-11-15T00:40:46;100914.60;;;6.91;82.20
58967;BME280;44744;51.894;5.080;2022-11-15T00:41:46;100912.84;;;6.92;82.29
58967;BME280;44744;51.894;5.080;2022-11-15T00:42:46;100910.88;;;6.92;82.38
58967;BME280;44744;51.894;5.080;2022-11-15T00:43:47;100910.52;;;6.92;82.46
58967;BME280;44744;51.894;5.080;2022-11-15T00:44:47;100912.42;;;6.93;82.51
58967;BME280;44744;51.894;5.080;2022-11-15T00:45:47;100912.02;;;6.94;82.41
58967;BME280;44744;51.894;5.080;2022-11-15T00:46:47;100907.27;;;6.94;82.46
58967;BME280;44744;51.894;5.080;2022-11-15T00:47:48;100909.37;;;6.95;82.42
58967;BME280;44744;51.894;5.080;2022-11-15T00:48:48;100907.23;;;6.95;82.39
58967;BME280;44744;51.894;5.080;2022-11-15T00:49:48;100911.23;;;6.96;82.49
58967;BME280;44744;51.894;5.080;2022-11-15T00:50:49;100910.39;;;6.96;82.55
58967;BME280;44744;51.894;5.080;2022-11-15T00:51:49;100908.82;;;6.95;82.55
58967;BME280;44744;51.894;5.080;2022-11-15T00:52:50;100907.70;;;6.97;82.52
58967;BME280;44744;51.894;5.080;2022-11-15T00:53:50;100903.46;;;6.97;82.42
58967;BME280;44744;51.894;5.080;2022-11-15T00:54:53;100900.27;;;6.98;82.64
58967;BME280;44744;51.894;5.080;2022-11-15T00:55:53;100900.77;;;6.99;82.64
58967;BME280;44744;51.894;5.080;2022-11-15T00:56:54;100901.63;;;6.99;82.73
58967;BME280;44744;51.894;5.080;2022-11-15T00:57:56;100895.78;;;7.01;82.82
58967;BME280;44744;51.894;5.080;2022-11-15T00:58:57;100895.11;;;6.99;82.80
58967;BME280;44744;51.894;5.080;2022-11-15T00:59:57;100899.08;;;7.02;82.83
58967;BME280;44744;51.894;5.080;2022-11-15T01:01:11;100895.08;;;7.01;82.90
58967;BME280;44744;51.894;5.080;2022-11-15T01:02:12;100891.67;;;7.02;82.95
58967;BME280;44744;51.894;5.080;2022-11-15T01:03:12;100890.60;;;7.03;82.88
58967;BME280;44744;51.894;5.080;2022-11-15T01:04:13;100892.15;;;7.03;83.09
58967;BME280;44744;51.894;5.080;2022-11-15T01:05:13;100892.08;;;7.05;82.93
58967;BME280;44744;51.894;5.080;2022-11-15T01:06:14;100888.73;;;7.06;83.03
58967;BME280;44744;51.894;5.080;2022-11-15T01:07:14;100889.89;;;7.07;83.08
58967;BME280;44744;51.894;5.080;2022-11-15T01:08:15;100890.41;;;7.08;83.04
58967;BME280;44744;51.894;5.080;2022-11-15T01:09:16;100889.48;;;7.09;83.01
58967;BME280;44744;51.894;5.080;2022-11-15T01:10:16;100887.16;;;7.09;83.05
58967;BME280;44744;51.894;5.080;2022-11-15T01:11:16;100887.68;;;7.10;83.10
58967;BME280;44744;51.894;5.080;2022-11-15T01:12:17;100888.69;;;7.11;83.13
58967;BME280;44744;51.894;5.080;2022-11-15T01:13:17;100887.39;;;7.12;83.17
58967;BME280;44744;51.894;5.080;2022-11-15T01:14:18;100893.19;;;7.12;83.11
58967;BME280;44744;51.894;5.080;2022-11-15T01:15:18;100891.95;;;7.13;83.18
58967;BME280;44744;51.894;5.080;2022-11-15T01:16:18;100895.95;;;7.13;83.15
58967;BME280;44744;51.894;5.080;2022-11-15T01:17:19;100891.87;;;7.15;83.26
58967;BME280;44744;51.894;5.080;2022-11-15T01:18:19;100888.53;;;7.15;83.30
58967;BME280;44744;51.894;5.080;2022-11-15T01:19:21;100884.52;;;7.14;83.52
58967;BME280;44744;51.894;5.080;2022-11-15T01:20:22;100888.16;;;7.15;83.48
58967;BME280;44744;51.894;5.080;2022-11-15T01:21:22;100886.93;;;7.15;83.49
58967;BME280;44744;51.894;5.080;2022-11-15T01:22:23;100880.63;;;7.14;83.56
58967;BME280;44744;51.894;5.080;2022-11-15T01:23:26;100878.31;;;7.15;83.47
58967;BME280;44744;51.894;5.080;2022-11-15T01:24:26;100879.48;;;7.16;83.47
58967;BME280;44744;51.894;5.080;2022-11-15T01:25:27;100878.75;;;7.17;83.53
58967;BME280;44744;51.894;5.080;2022-11-15T01:26:27;100876.80;;;7.18;83.53
58967;BME280;44744;51.894;5.080;2022-11-15T01:27:27;100882.91;;;7.20;83.58
58967;BME280;44744;51.894;5.080;2022-11-15T01:28:32;100879.67;;;7.21;83.45
58967;BME280;44744;51.894;5.080;2022-11-15T01:29:33;100878.80;;;7.21;83.63
58967;BME280;44744;51.894;5.080;2022-11-15T01:30:33;100880.71;;;7.21;83.69
58967;BME280;44744;51.894;5.080;2022-11-15T01:31:33;100880.02;;;7.21;83.66
58967;BME280;44744;51.894;5.080;2022-11-15T01:32:34;100876.84;;;7.22;83.74
58967;BME280;44744;51.894;5.080;2022-11-15T01:33:35;100877.20;;;7.21;83.78
58967;BME280;44744;51.894;5.080;2022-11-15T01:34:35;100878.08;;;7.21;83.85
58967;BME280;44744;51.894;5.080;2022-11-15T01:35:38;100868.04;;;7.22;83.93
58967;BME280;44744;51.894;5.080;2022-11-15T01:36:39;100869.98;;;7.22;84.18
58967;BME280;44744;51.894;5.080;2022-11-15T01:37:39;100873.28;;;7.23;84.02
58967;BME280;44744;51.894;5.080;2022-11-15T01:38:39;100875.90;;;7.23;84.08
58967;BME280;44744;51.894;5.080;2022-11-15T01:39:39;100877.05;;;7.25;84.15
58967;BME280;44744;51.894;5.080;2022-11-15T01:40:40;100874.39;;;7.25;84.18
58967;BME280;44744;51.894;5.080;2022-11-15T01:41:40;100871.04;;;7.26;84.17
58967;BME280;44744;51.894;5.080;2022-11-15T01:42:40;100873.83;;;7.27;84.22
58967;BME280;44744;51.894;5.080;2022-11-15T01:43:41;100870.27;;;7.27;84.09
58967;BME280;44744;51.894;5.080;2022-11-15T01:44:46;100872.70;;;7.28;84.16
58967;BME280;44744;51.894;5.080;2022-11-15T01:45:54;100876.20;;;7.28;84.25
58967;BME280;44744;51.894;5.080;2022-11-15T01:46:54;100872.88;;;7.28;84.29
58967;BME280;44744;51.894;5.080;2022-11-15T01:47:57;100872.14;;;7.29;84.31
58967;BME280;44744;51.894;5.080;2022-11-15T01:49:01;100871.36;;;7.30;84.20
58967;BME280;44744;51.894;5.080;2022-11-15T01:51:07;100874.97;;;7.33;84.42
58967;BME280;44744;51.894;5.080;2022-11-15T01:52:13;100869.33;;;7.33;84.62
58967;BME280;44744;51.894;5.080;2022-11-15T01:53:17;100864.41;;;7.33;84.54
58967;BME280;44744;51.894;5.080;2022-11-15T01:54:21;100864.18;;;7.34;84.73
58967;BME280;44744;51.894;5.080;2022-11-15T01:55:25;100861.35;;;7.34;84.64
58967;BME280;44744;51.894;5.080;2022-11-15T01:56:29;100859.88;;;7.36;84.61
58967;BME280;44744;51.894;5.080;2022-11-15T01:57:30;100859.48;;;7.37;84.66
58967;BME280;44744;51.894;5.080;2022-11-15T01:58:31;100854.33;;;7.38;84.70
58967;BME280;44744;51.894;5.080;2022-11-15T01:59:33;100852.54;;;7.39;84.75
58967;BME280;44744;51.894;5.080;2022-11-15T02:00:33;100854.20;;;7.42;84.61
58967;BME280;44744;51.894;5.080;2022-11-15T02:01:37;100853.81;;;7.42;84.60
58967;BME280;44744;51.894;5.080;2022-11-15T02:02:38;100855.29;;;7.45;84.64
58967;BME280;44744;51.894;5.080;2022-11-15T02:03:58;100850.69;;;7.45;84.69
58967;BME280;44744;51.894;5.080;2022-11-15T02:04:59;100845.73;;;7.46;84.64
58967;BME280;44744;51.894;5.080;2022-11-15T02:05:59;100844.60;;;7.48;84.62
58967;BME280;44744;51.894;5.080;2022-11-15T02:07:03;100840.33;;;7.49;84.86
58967;BME280;44744;51.894;5.080;2022-11-15T02:08:06;100840.77;;;7.51;84.83
58967;BME280;44744;51.894;5.080;2022-11-15T02:09:09;100840.20;;;7.52;84.89
58967;BME280;44744;51.894;5.080;2022-11-15T02:10:17;100839.73;;;7.55;84.73
58967;BME280;44744;51.894;5.080;2022-11-15T02:11:17;100838.80;;;7.56;84.75
58967;BME280;44744;51.894;5.080;2022-11-15T02:12:21;100836.98;;;7.58;84.87
58967;BME280;44744;51.894;5.080;2022-11-15T02:13:22;100831.82;;;7.59;84.88
58967;BME280;44744;51.894;5.080;2022-11-15T02:14:25;100835.61;;;7.61;84.88
58967;BME280;44744;51.894;5.080;2022-11-15T02:15:40;100833.56;;;7.63;84.87
58967;BME280;44744;51.894;5.080;2022-11-15T02:18:28;100832.93;;;7.66;84.95
58967;BME280;44744;51.894;5.080;2022-11-15T02:20:41;100827.74;;;7.68;84.97
58967;BME280;44744;51.894;5.080;2022-11-15T02:21:48;100824.50;;;7.70;85.12
58967;BME280;44744;51.894;5.080;2022-11-15T02:22:57;100821.10;;;7.71;84.94
58967;BME280;44744;51.894;5.080;2022-11-15T02:29:37;100807.92;;;7.79;85.01
58967;BME280;44744;51.894;5.080;2022-11-15T02:30:47;100809.26;;;7.80;85.07
58967;BME280;44744;51.894;5.080;2022-11-15T02:33:03;100811.27;;;7.82;85.12
58967;BME280;44744;51.894;5.080;2022-11-15T02:34:32;100810.36;;;7.83;85.01
58967;BME280;44744;51.894;5.080;2022-11-15T02:37:03;100807.06;;;7.86;85.20
58967;BME280;44744;51.894;5.080;2022-11-15T02:38:22;100803.14;;;7.88;85.20
58967;BME280;44744;51.894;5.080;2022-11-15T02:41:59;100793.39;;;7.93;85.15
58967;BME280;44744;51.894;5.080;2022-11-15T02:43:08;100793.19;;;7.93;85.19
58967;BME280;44744;51.894;5.080;2022-11-15T02:44:21;100793.14;;;7.94;85.28
58967;BME280;44744;51.894;5.080;2022-11-15T02:45:35;100792.19;;;7.96;85.23
58967;BME280;44744;51.894;5.080;2022-11-15T02:46:48;100791.25;;;7.97;85.46
58967;BME280;44744;51.894;5.080;2022-11-15T02:47:52;100789.89;;;8.00;85.41
58967;BME280;44744;51.894;5.080;2022-11-15T02:48:55;100792.98;;;8.02;85.44
58967;BME280;44744;51.894;5.080;2022-11-15T02:49:59;100792.23;;;8.03;85.36
58967;BME280;44744;51.894;5.080;2022-11-15T02:51:00;100791.41;;;8.06;85.37
58967;BME280;44744;51.894;5.080;2022-11-15T02:52:01;100796.96;;;8.07;85.31
58967;BME280;44744;51.894;5.080;2022-11-15T02:53:02;100792.70;;;8.09;85.33
58967;BME280;44744;51.894;5.080;2022-11-15T02:54:03;100793.32;;;8.10;85.35
58967;BME280;44744;51.894;5.080;2022-11-15T02:55:03;100789.36;;;8.12;85.47
58967;BME280;44744;51.894;5.080;2022-11-15T02:56:04;100791.40;;;8.14;85.59
58967;BME280;44744;51.894;5.080;2022-11-15T02:57:12;100787.98;;;8.15;85.54
58967;BME280;44744;51.894;5.080;2022-11-15T03:00:59;100782.33;;;8.19;85.66
58967;BME280;44744;51.894;5.080;2022-11-15T03:04:41;100780.55;;;8.24;85.78
58967;BME280;44744;51.894;5.080;2022-11-15T03:05:56;100782.04;;;8.26;85.75
58967;BME280;44744;51.894;5.080;2022-11-15T03:07:07;100783.35;;;8.28;85.87
58967;BME280;44744;51.894;5.080;2022-11-15T03:08:19;100786.05;;;8.30;85.91
58967;BME280;44744;51.894;5.080;2022-11-15T03:09:35;100786.86;;;8.32;85.86
58967;BME280;44744;51.894;5.080;2022-11-15T03:10:59;100785.69;;;8.34;85.84
58967;BME280;44744;51.894;5.080;2022-11-15T03:12:12;100786.38;;;8.35;85.85
58967;BME280;44744;51.894;5.080;2022-11-15T03:13:28;100785.59;;;8.36;85.96
58967;BME280;44744;51.894;5.080;2022-11-15T03:14:36;100788.80;;;8.40;86.07
58967;BME280;44744;51.894;5.080;2022-11-15T03:15:44;100792.40;;;8.42;86.04
58967;BME280;44744;51.894;5.080;2022-11-15T03:17:12;100791.97;;;8.43;86.01
58967;BME280;44744;51.894;5.080;2022-11-15T03:18:45;100790.16;;;8.45;86.11
58967;BME280;44744;51.894;5.080;2022-11-15T03:19:50;100790.99;;;8.46;86.22
58967;BME280;44744;51.894;5.080;2022-11-15T03:20:53;100792.15;;;8.48;86.19
58967;BME280;44744;51.894;5.080;2022-11-15T03:21:55;100794.12;;;8.51;86.16
58967;BME280;44744;51.894;5.080;2022-11-15T03:23:01;100796.27;;;8.50;86.21
58967;BME280;44744;51.894;5.080;2022-11-15T03:24:06;100799.17;;;8.52;86.37
58967;BME280;44744;51.894;5.080;2022-11-15T03:25:10;100795.52;;;8.55;86.30
58967;BME280;44744;51.894;5.080;2022-11-15T03:26:14;100796.06;;;8.58;86.35
58967;BME280;44744;51.894;5.080;2022-11-15T03:27:21;100794.39;;;8.60;86.38
58967;BME280;44744;51.894;5.080;2022-11-15T03:28:25;100792.14;;;8.63;86.47
58967;BME280;44744;51.894;5.080;2022-11-15T03:29:41;100792.52;;;8.66;86.53
58967;BME280;44744;51.894;5.080;2022-11-15T03:30:43;100792.23;;;8.68;86.66
58967;BME280;44744;51.894;5.080;2022-11-15T03:31:53;100791.95;;;8.71;86.64
58967;BME280;44744;51.894;5.080;2022-11-15T03:32:57;100791.12;;;8.74;86.67
58967;BME280;44744;51.894;5.080;2022-11-15T03:34:03;100791.69;;;8.76;86.65
58967;BME280;44744;51.894;5.080;2022-11-15T03:35:08;100788.24;;;8.78;86.61
58967;BME280;44744;51.894;5.080;2022-11-15T03:36:09;100789.18;;;8.81;86.69
58967;BME280;44744;51.894;5.080;2022-11-15T03:37:13;100791.58;;;8.82;86.82
58967;BME280;44744;51.894;5.080;2022-11-15T03:39:18;100790.29;;;8.87;86.81
58967;BME280;44744;51.894;5.080;2022-11-15T03:40:23;100794.08;;;8.89;86.86
58967;BME280;44744;51.894;5.080;2022-11-15T03:41:42;100791.33;;;8.91;86.82
58967;BME280;44744;51.894;5.080;2022-11-15T03:42:50;100788.78;;;8.93;86.89
58967;BME280;44744;51.894;5.080;2022-11-15T03:44:14;100791.89;;;8.94;86.96
58967;BME280;44744;51.894;5.080;2022-11-15T03:45:22;100794.45;;;8.96;87.02
58967;BME280;44744;51.894;5.080;2022-11-15T03:46:27;100791.23;;;8.97;86.99
58967;BME280;44744;51.894;5.080;2022-11-15T03:47:35;100795.35;;;8.99;86.92
58967;BME280;44744;51.894;5.080;2022-11-15T03:48:43;100793.48;;;9.01;86.99
58967;BME280;44744;51.894;5.080;2022-11-15T03:49:50;100792.20;;;9.02;86.99
58967;BME280;44744;51.894;5.080;2022-11-15T03:50:52;100793.76;;;9.03;87.00
58967;BME280;44744;51.894;5.080;2022-11-15T03:51:56;100794.52;;;9.05;87.18
58967;BME280;44744;51.894;5.080;2022-11-15T03:52:57;100787.96;;;9.06;87.33
58967;BME280;44744;51.894;5.080;2022-11-15T03:53:58;100789.66;;;9.07;87.14
58967;BME280;44744;51.894;5.080;2022-11-15T03:55:00;100791.55;;;9.08;87.10
58967;BME280;44744;51.894;5.080;2022-11-15T03:56:02;100794.64;;;9.10;87.14
58967;BME280;44744;51.894;5.080;2022-11-15T03:57:02;100789.13;;;9.10;87.13
58967;BME280;44744;51.894;5.080;2022-11-15T03:58:03;100788.01;;;9.12;87.13
58967;BME280;44744;51.894;5.080;2022-11-15T03:59:03;100782.48;;;9.13;87.16
58967;BME280;44744;51.894;5.080;2022-11-15T04:00:04;100778.91;;;9.14;87.26
58967;BME280;44744;51.894;5.080;2022-11-15T04:01:04;100777.07;;;9.15;87.25
58967;BME280;44744;51.894;5.080;2022-11-15T04:02:05;100770.30;;;9.17;87.27
58967;BME280;44744;51.894;5.080;2022-11-15T04:03:05;100767.96;;;9.18;87.40
58967;BME280;44744;51.894;5.080;2022-11-15T04:04:05;100770.23;;;9.18;87.38
58967;BME280;44744;51.894;5.080;2022-11-15T04:05:06;100766.63;;;9.20;87.34
58967;BME280;44744;51.894;5.080;2022-11-15T04:06:06;100764.83;;;9.20;87.24
58967;BME280;44744;51.894;5.080;2022-11-15T04:07:07;100767.20;;;9.22;87.35
58967;BME280;44744;51.894;5.080;2022-11-15T04:08:07;100766.43;;;9.24;87.43
58967;BME280;44744;51.894;5.080;2022-11-15T04:09:07;100764.97;;;9.25;87.49
58967;BME280;44744;51.894;5.080;2022-11-15T04:10:10;100763.32;;;9.26;87.38
58967;BME280;44744;51.894;5.080;2022-11-15T04:11:10;100756.73;;;9.27;87.42
58967;BME280;44744;51.894;5.080;2022-11-15T04:12:10;100759.16;;;9.28;87.44
58967;BME280;44744;51.894;5.080;2022-11-15T04:13:11;100752.77;;;9.29;87.46
58967;BME280;44744;51.894;5.080;2022-11-15T04:14:11;100750.91;;;9.31;87.39
58967;BME280;44744;51.894;5.080;2022-11-15T04:15:14;100748.57;;;9.31;87.37
58967;BME280;44744;51.894;5.080;2022-11-15T04:16:15;100753.09;;;9.32;87.45
58967;BME280;44744;51.894;5.080;2022-11-15T04:17:15;100753.43;;;9.33;87.33
58967;BME280;44744;51.894;5.080;2022-11-15T04:18:15;100752.70;;;9.33;87.35
58967;BME280;44744;51.894;5.080;2022-11-15T04:19:16;100750.77;;;9.34;87.29
58967;BME280;44744;51.894;5.080;2022-11-15T04:20:22;100750.88;;;9.35;87.30
58967;BME280;44744;51.894;5.080;2022-11-15T04:21:23;100749.42;;;9.35;87.28
58967;BME280;44744;51.894;5.080;2022-11-15T04:22:24;100748.54;;;9.35;87.34
58967;BME280;44744;51.894;5.080;2022-11-15T04:23:24;100752.70;;;9.37;87.32
58967;BME280;44744;51.894;5.080;2022-11-15T04:24:24;100754.98;;;9.37;87.37
58967;BME280;44744;51.894;5.080;2022-11-15T04:25:24;100757.10;;;9.37;87.53
58967;BME280;44744;51.894;5.080;2022-11-15T04:26:25;100764.41;;;9.39;87.35
58967;BME280;44744;51.894;5.080;2022-11-15T04:27:25;100764.73;;;9.40;87.33
58967;BME280;44744;51.894;5.080;2022-11-15T04:28:25;100760.27;;;9.40;87.19
58967;BME280;44744;51.894;5.080;2022-11-15T04:29:26;100762.73;;;9.41;87.20
58967;BME280;44744;51.894;5.080;2022-11-15T04:30:26;100763.73;;;9.42;87.17
58967;BME280;44744;51.894;5.080;2022-11-15T04:31:27;100765.92;;;9.41;87.11
58967;BME280;44744;51.894;5.080;2022-11-15T04:32:27;100768.41;;;9.40;87.16
58967;BME280;44744;51.894;5.080;2022-11-15T04:33:30;100772.84;;;9.40;87.13
58967;BME280;44744;51.894;5.080;2022-11-15T04:34:30;100771.05;;;9.40;87.18
58967;BME280;44744;51.894;5.080;2022-11-15T04:35:30;100769.81;;;9.40;87.18
58967;BME280;44744;51.894;5.080;2022-11-15T04:36:32;100766.27;;;9.41;87.12
58967;BME280;44744;51.894;5.080;2022-11-15T04:37:33;100769.98;;;9.41;87.28
58967;BME280;44744;51.894;5.080;2022-11-15T04:38:34;100767.87;;;9.41;87.27
58967;BME280;44744;51.894;5.080;2022-11-15T04:39:34;100768.23;;;9.40;87.21
58967;BME280;44744;51.894;5.080;2022-11-15T04:40:36;100767.34;;;9.40;87.26
58967;BME280;44744;51.894;5.080;2022-11-15T04:41:36;100769.97;;;9.41;87.16
58967;BME280;44744;51.894;5.080;2022-11-15T04:42:36;100771.74;;;9.41;87.17
58967;BME280;44744;51.894;5.080;2022-11-15T04:43:37;100778.92;;;9.42;87.25
58967;BME280;44744;51.894;5.080;2022-11-15T04:44:37;100778.02;;;9.43;87.30
58967;BME280;44744;51.894;5.080;2022-11-15T04:45:37;100781.55;;;9.43;87.38
58967;BME280;44744;51.894;5.080;2022-11-15T04:46:37;100781.67;;;9.43;87.37
58967;BME280;44744;51.894;5.080;2022-11-15T04:47:38;100778.69;;;9.43;87.41
58967;BME280;44744;51.894;5.080;2022-11-15T04:48:40;100776.74;;;9.43;87.47
58967;BME280;44744;51.894;5.080;2022-11-15T04:49:41;100775.27;;;9.44;87.38
58967;BME280;44744;51.894;5.080;2022-11-15T04:50:42;100779.66;;;9.45;87.33
58967;BME280;44744;51.894;5.080;2022-11-15T04:51:42;100782.65;;;9.45;87.55
58967;BME280;44744;51.894;5.080;2022-11-15T04:54:28;100778.91;;;9.45;87.55
58967;BME280;44744;51.894;5.080;2022-11-15T04:56:58;100775.27;;;9.45;87.51
58967;BME280;44744;51.894;5.080;2022-11-15T04:58:00;100777.55;;;9.45;87.61
58967;BME280;44744;51.894;5.080;2022-11-15T04:59:00;100776.60;;;9.46;87.62
58967;BME280;44744;51.894;5.080;2022-11-15T05:00:06;100774.63;;;9.46;87.57
58967;BME280;44744;51.894;5.080;2022-11-15T05:01:11;100775.11;;;9.48;87.56
58967;BME280;44744;51.894;5.080;2022-11-15T05:02:12;100772.27;;;9.48;87.69
58967;BME280;44744;51.894;5.080;2022-11-15T05:03:12;100770.67;;;9.48;87.57
58967;BME280;44744;51.894;5.080;2022-11-15T05:04:13;100764.95;;;9.49;87.63
58967;BME280;44744;51.894;5.080;2022-11-15T05:05:26;100768.23;;;9.50;87.63
58967;BME280;44744;51.894;5.080;2022-11-15T05:06:27;100769.07;;;9.51;87.67
58967;BME280;44744;51.894;5.080;2022-11-15T05:07:28;100764.60;;;9.53;87.83
58967;BME280;44744;51.894;5.080;2022-11-15T05:08:28;100764.98;;;9.52;87.79
58967;BME280;44744;51.894;5.080;2022-11-15T05:09:29;100765.48;;;9.53;87.78
58967;BME280;44744;51.894;5.080;2022-11-15T05:10:29;100761.95;;;9.53;87.78
58967;BME280;44744;51.894;5.080;2022-11-15T05:11:30;100762.58;;;9.54;87.90
58967;BME280;44744;51.894;5.080;2022-11-15T05:12:33;100764.46;;;9.55;87.79
58967;BME280;44744;51.894;5.080;2022-11-15T05:13:33;100764.11;;;9.55;87.79
58967;BME280;44744;51.894;5.080;2022-11-15T05:14:33;100764.10;;;9.55;87.98
58967;BME280;44744;51.894;5.080;2022-11-15T05:15:33;100760.15;;;9.57;87.84
58967;BME280;44744;51.894;5.080;2022-11-15T05:16:34;100764.36;;;9.58;87.75
58967;BME280;44744;51.894;5.080;2022-11-15T05:17:35;100766.05;;;9.59;87.76
58967;BME280;44744;51.894;5.080;2022-11-15T05:18:35;100770.26;;;9.60;87.77
58967;BME280;44744;51.894;5.080;2022-11-15T05:19:35;100774.14;;;9.60;87.87
58967;BME280;44744;51.894;5.080;2022-11-15T05:20:36;100779.17;;;9.61;87.80
58967;BME280;44744;51.894;5.080;2022-11-15T05:21:36;100778.66;;;9.61;87.98
58967;BME280;44744;51.894;5.080;2022-11-15T05:22:40;100777.91;;;9.62;87.91
58967;BME280;44744;51.894;5.080;2022-11-15T05:23:40;100777.49;;;9.63;87.79
58967;BME280;44744;51.894;5.080;2022-11-15T05:24:42;100774.84;;;9.63;87.81
58967;BME280;44744;51.894;5.080;2022-11-15T05:25:43;100775.88;;;9.64;87.86
58967;BME280;44744;51.894;5.080;2022-11-15T05:26:43;100775.34;;;9.64;87.87
58967;BME280;44744;51.894;5.080;2022-11-15T05:27:43;100773.34;;;9.65;87.85
58967;BME280;44744;51.894;5.080;2022-11-15T05:28:44;100772.31;;;9.64;87.91
58967;BME280;44744;51.894;5.080;2022-11-15T05:29:44;100768.19;;;9.65;87.91
58967;BME280;44744;51.894;5.080;2022-11-15T05:30:46;100771.48;;;9.66;87.82
58967;BME280;44744;51.894;5.080;2022-11-15T05:31:46;100775.20;;;9.66;87.85
58967;BME280;44744;51.894;5.080;2022-11-15T05:32:47;100778.52;;;9.67;87.86
58967;BME280;44744;51.894;5.080;2022-11-15T05:33:49;100781.34;;;9.67;88.02
58967;BME280;44744;51.894;5.080;2022-11-15T05:34:50;100781.14;;;9.68;87.94
58967;BME280;44744;51.894;5.080;2022-11-15T05:35:56;100782.36;;;9.68;87.90
58967;BME280;44744;51.894;5.080;2022-11-15T05:36:58;100783.19;;;9.68;87.94
58967;BME280;44744;51.894;5.080;2022-11-15T05:37:59;100786.70;;;9.69;87.92
58967;BME280;44744;51.894;5.080;2022-11-15T05:38:59;100784.90;;;9.70;87.88
58967;BME280;44744;51.894;5.080;2022-11-15T05:40:00;100784.17;;;9.70;87.88
58967;BME280;44744;51.894;5.080;2022-11-15T05:41:01;100784.48;;;9.71;87.87
58967;BME280;44744;51.894;5.080;2022-11-15T05:42:11;100786.92;;;9.72;87.89
58967;BME280;44744;51.894;5.080;2022-11-15T05:43:13;100787.80;;;9.72;87.84
58967;BME280;44744;51.894;5.080;2022-11-15T05:44:16;100786.35;;;9.72;87.86
58967;BME280;44744;51.894;5.080;2022-11-15T05:45:18;100784.56;;;9.73;87.96
58967;BME280;44744;51.894;5.080;2022-11-15T05:46:18;100788.23;;;9.73;87.85
58967;BME280;44744;51.894;5.080;2022-11-15T05:47:22;100786.84;;;9.73;87.88
58967;BME280;44744;51.894;5.080;2022-11-15T05:48:24;100785.55;;;9.74;87.93
58967;BME280;44744;51.894;5.080;2022-11-15T05:49:28;100782.34;;;9.75;87.90
58967;BME280;44744;51.894;5.080;2022-11-15T05:50:30;100785.34;;;9.75;87.92
58967;BME280;44744;51.894;5.080;2022-11-15T05:51:34;100787.48;;;9.75;87.91
58967;BME280;44744;51.894;5.080;2022-11-15T05:52:36;100788.33;;;9.76;87.91
58967;BME280;44744;51.894;5.080;2022-11-15T05:53:37;100787.09;;;9.76;87.91
58967;BME280;44744;51.894;5.080;2022-11-15T05:54:37;100786.33;;;9.76;87.85
58967;BME280;44744;51.894;5.080;2022-11-15T05:55:39;100782.77;;;9.77;87.92
58967;BME280;44744;51.894;5.080;2022-11-15T05:56:40;100783.07;;;9.78;87.97